Coalby, Colorado
Current Conditions -  °F | °C
As of 3:15 AM on Sunday 26 Oct 2014 (Local Time) from KAJZ Reporting Station
Overcast Overcast  
Wind Chill: 55°   Ceiling: 8500
Heat Index: 55°   Visibility: 10mi
Dew Point: 36°   Wind: 7mph
Humidity: 48%   Direction: 80°E
Pressure: 30.06"   Gusts: NA
Location:  38.9793°N, 107.894°W
Report Text: KAJZ 260915Z AUTO 08006KT 10SM OVC085 13/02 A3006 RMK AO2 T01300022
Loading
Personal Weather Stations






























Interactive Weather Map
Tropical Storm Tracking
New forecast layout! Learn more

10-Day Weather Forecast

Advertisements
Track Severe Weather on mobile